Time;durP1;ratioP1;P1;durP2;ratioP2;P2;SDS_P1;SDS_P2;PMS_P1;PMS_P2;Temp;Humidity;BMP_temperature;BMP_pressure;BME280_temperature;BME280_humidity;BME280_pressure;Samples;Min_cycle;Max_cycle;Signal;HPM_P1;HPM_P2
2022/12/19 00:00:59;;;;;;;;;;;4.00;99.90;;;;;;5005310;28;19913;-67
2022/12/19 00:03:26;;;;;;;;;;;4.00;99.90;;;;;;5012080;28;19937;-67
2022/12/19 00:05:52;;;;;;;;;;;4.00;99.90;;;;;;5010759;28;20016;-70
2022/12/19 00:08:18;;;;;;;;;;;4.10;99.90;;;;;;5012410;28;19985;-69
2022/12/19 00:10:44;;;;;;;;;;;4.00;99.90;;;;;;5002836;28;19985;-68
2022/12/19 00:13:09;;;;;;;;;;;4.10;99.90;;;;;;5011007;28;19914;-69
2022/12/19 00:15:35;;;;;;;;;;;4.00;99.90;;;;;;5002255;28;19916;-68
2022/12/19 00:18:01;;;;;;;;;;;4.10;99.90;;;;;;5017266;28;19913;-67
2022/12/19 00:20:27;;;;;;;;;;;4.00;99.90;;;;;;4993205;28;20415;-69
2022/12/19 00:22:52;;;;;;;;;;;4.00;99.90;;;;;;5009798;28;20032;-67
2022/12/19 00:25:18;;;;;;;;;;;4.00;99.90;;;;;;5011795;28;20315;-69
2022/12/19 00:27:43;;;;;;;;;;;3.90;99.90;;;;;;5009440;28;19914;-67
2022/12/19 00:30:10;;;;;;;;;;;3.90;99.90;;;;;;5010273;28;19921;-68
2022/12/19 00:32:36;;;;;;;;;;;4.00;99.90;;;;;;5010168;28;19914;-68
2022/12/19 00:35:01;;;;;;;;;;;3.90;99.90;;;;;;5005896;28;19913;-68
2022/12/19 00:37:27;;;;;;;;;;;3.90;99.90;;;;;;5004248;28;19920;-68
2022/12/19 00:39:52;;;;;;;;;;;3.80;99.90;;;;;;4987427;28;19928;-68
2022/12/19 00:42:18;;;;;;;;;;;3.80;99.90;;;;;;5001932;28;20328;-68
2022/12/19 00:44:44;;;;;;;;;;;3.80;99.90;;;;;;4988550;28;19913;-70
2022/12/19 00:47:09;;;;;;;;;;;3.80;99.90;;;;;;4994350;28;19921;-69
2022/12/19 00:49:35;;;;;;;;;;;3.90;99.90;;;;;;4996262;28;19929;-67
2022/12/19 00:52:00;;;;;;;;;;;3.90;99.90;;;;;;4993996;28;20313;-68
2022/12/19 00:54:26;;;;;;;;;;;3.90;99.90;;;;;;4991296;28;20282;-69
2022/12/19 00:56:52;;;;;;;;;;;3.90;99.90;;;;;;4991581;28;19923;-68
2022/12/19 00:59:17;;;;;;;;;;;3.90;99.90;;;;;;4994388;28;19921;-68
2022/12/19 01:01:43;;;;;;;;;;;4.00;99.90;;;;;;4989932;28;20335;-69
2022/12/19 01:04:11;;;;;;;;;;;3.90;99.90;;;;;;4995639;28;19923;-68
2022/12/19 01:06:37;;;;;;;;;;;4.00;99.90;;;;;;4996942;28;20075;-68
2022/12/19 01:09:03;;;;;;;;;;;3.90;99.90;;;;;;4991011;28;20000;-68
2022/12/19 01:14:13;;;;;;;;;;;4.00;99.90;;;;;;4992013;28;20056;-67
2022/12/19 01:16:39;;;;;;;;;;;4.00;99.90;;;;;;4994595;28;20281;-67
2022/12/19 01:19:04;;;;;;;;;;;4.00;99.90;;;;;;5014691;28;19921;-69
2022/12/19 01:21:30;;;;;;;;;;;4.00;99.90;;;;;;5010413;28;19917;-68
2022/12/19 01:23:55;;;;;;;;;;;4.10;99.90;;;;;;5011969;28;19917;-68
2022/12/19 01:26:21;;;;;;;;;;;4.10;99.90;;;;;;5010928;28;20344;-68
2022/12/19 01:28:46;;;;;;;;;;;4.10;99.90;;;;;;5013877;28;20394;-68
2022/12/19 01:31:12;;;;;;;;;;;4.10;99.90;;;;;;5015144;28;19944;-68
2022/12/19 01:33:38;;;;;;;;;;;4.10;99.90;;;;;;5012973;28;19996;-70
2022/12/19 01:36:06;;;;;;;;;;;4.10;99.90;;;;;;5014548;28;19914;-67
2022/12/19 01:38:32;;;;;;;;;;;4.00;99.90;;;;;;4994254;28;20004;-68
2022/12/19 01:40:58;;;;;;;;;;;4.10;99.90;;;;;;4996171;28;19968;-68
2022/12/19 01:43:24;;;;;;;;;;;4.10;99.90;;;;;;4997246;28;19922;-68
2022/12/19 01:46:04;;;;;;;;;;;4.20;99.90;;;;;;4995961;28;19922;-68
2022/12/19 01:48:34;;;;;;;;;;;4.20;99.90;;;;;;4993957;28;20369;-68
2022/12/19 01:51:01;;;;;;;;;;;4.20;99.90;;;;;;4991279;28;19977;-68
2022/12/19 01:53:29;;;;;;;;;;;4.20;99.90;;;;;;5002817;28;20325;-66
2022/12/19 01:55:54;;;;;;;;;;;4.30;99.90;;;;;;4998832;28;20330;-68
2022/12/19 01:58:21;;;;;;;;;;;4.30;99.90;;;;;;4997982;28;19922;-68
2022/12/19 02:00:46;;;;;;;;;;;4.30;99.90;;;;;;4996118;28;19914;-67
2022/12/19 02:03:18;;;;;;;;;;;4.20;99.90;;;;;;4995497;28;20400;-68
2022/12/19 02:05:44;;;;;;;;;;;4.30;99.90;;;;;;4995247;28;19918;-68
2022/12/19 02:08:10;;;;;;;;;;;4.30;99.90;;;;;;4996077;28;20454;-68
2022/12/19 02:10:35;;;;;;;;;;;4.30;99.90;;;;;;4996443;28;19914;-68
2022/12/19 02:13:01;;;;;;;;;;;4.30;99.90;;;;;;5005942;28;20262;-68
2022/12/19 02:15:31;;;;;;;;;;;4.30;99.90;;;;;;5010585;28;19990;-68
2022/12/19 02:18:08;;;;;;;;;;;4.30;99.90;;;;;;5011961;28;20021;-67
2022/12/19 02:20:53;;;;;;;;;;;4.30;99.90;;;;;;5012797;28;19917;-67
2022/12/19 02:23:21;;;;;;;;;;;4.30;99.90;;;;;;5014759;28;20332;-68
2022/12/19 02:25:50;;;;;;;;;;;4.20;99.90;;;;;;4993104;28;20051;-67
2022/12/19 02:28:21;;;;;;;;;;;4.30;99.90;;;;;;5008871;28;19956;-67
2022/12/19 02:30:46;;;;;;;;;;;4.30;99.90;;;;;;5004598;28;20308;-67
2022/12/19 02:33:12;;;;;;;;;;;4.30;99.90;;;;;;5011245;28;19910;-67
2022/12/19 02:35:37;;;;;;;;;;;4.30;99.90;;;;;;5012836;28;19913;-68
2022/12/19 02:38:14;;;;;;;;;;;4.40;99.90;;;;;;5009481;28;19914;-68
2022/12/19 02:41:00;;;;;;;;;;;4.40;99.90;;;;;;5011134;28;19945;-67
2022/12/19 02:43:28;;;;;;;;;;;4.40;99.90;;;;;;4956893;28;20016;-68
2022/12/19 02:45:55;;;;;;;;;;;4.30;99.90;;;;;;5008394;28;19913;-69
2022/12/19 02:48:21;;;;;;;;;;;4.40;99.90;;;;;;5009086;28;19920;-68
2022/12/19 02:50:47;;;;;;;;;;;4.40;99.90;;;;;;5008321;28;19917;-68
2022/12/19 02:53:13;;;;;;;;;;;4.40;99.90;;;;;;5009043;28;19914;-68
2022/12/19 02:56:01;;;;;;;;;;;4.40;99.90;;;;;;5006870;28;20391;-68
2022/12/19 02:58:36;;;;;;;;;;;4.40;99.90;;;;;;5008759;28;19914;-68
2022/12/19 03:01:01;;;;;;;;;;;4.40;99.90;;;;;;5011977;28;20369;-67
2022/12/19 03:03:39;;;;;;;;;;;4.50;99.90;;;;;;5003272;28;19917;-68
2022/12/19 03:06:08;;;;;;;;;;;4.50;99.90;;;;;;5001759;28;20004;-69
2022/12/19 03:08:41;;;;;;;;;;;4.50;99.90;;;;;;5005005;28;19918;-69
2022/12/19 03:11:08;;;;;;;;;;;4.40;99.90;;;;;;5006785;28;20326;-68
2022/12/19 03:13:41;;;;;;;;;;;4.40;99.90;;;;;;5010192;28;19914;-68
2022/12/19 03:16:08;;;;;;;;;;;4.40;99.90;;;;;;5000731;28;19914;-68
2022/12/19 03:18:34;;;;;;;;;;;4.50;99.90;;;;;;5009533;28;19924;-69
2022/12/19 03:21:10;;;;;;;;;;;4.50;99.90;;;;;;4997007;28;20447;-69
2022/12/19 03:23:36;;;;;;;;;;;4.60;99.90;;;;;;5009277;28;21891;-69
2022/12/19 03:26:05;;;;;;;;;;;4.50;99.90;;;;;;5007420;28;19913;-69
2022/12/19 03:28:49;;;;;;;;;;;4.50;99.90;;;;;;5006827;28;20040;-69
2022/12/19 03:31:16;;;;;;;;;;;4.60;99.90;;;;;;4975447;28;19914;-69
2022/12/19 03:33:42;;;;;;;;;;;4.50;99.90;;;;;;5001665;28;20001;-70
2022/12/19 03:36:10;;;;;;;;;;;4.60;99.90;;;;;;5011307;28;19920;-68
2022/12/19 03:38:37;;;;;;;;;;;4.60;99.90;;;;;;5007501;28;19920;-67
2022/12/19 03:41:05;;;;;;;;;;;4.60;99.90;;;;;;4994415;28;19914;-67
2022/12/19 03:43:31;;;;;;;;;;;4.60;99.90;;;;;;4991388;28;19926;-67
2022/12/19 03:46:01;;;;;;;;;;;4.60;99.90;;;;;;4994330;28;19918;-68
2022/12/19 03:48:30;;;;;;;;;;;4.60;99.90;;;;;;4990911;28;19995;-68
2022/12/19 03:51:08;;;;;;;;;;;4.60;99.90;;;;;;4991005;28;20403;-68
2022/12/19 03:53:49;;;;;;;;;;;4.60;99.90;;;;;;4998155;28;19913;-67
2022/12/19 03:56:21;;;;;;;;;;;4.60;99.90;;;;;;4993965;28;19914;-68
2022/12/19 03:58:50;;;;;;;;;;;4.60;99.90;;;;;;4994704;28;20274;-67
2022/12/19 04:01:16;;;;;;;;;;;4.60;99.90;;;;;;4996810;28;19987;-68
2022/12/19 04:03:42;;;;;;;;;;;4.60;99.90;;;;;;4995535;28;20141;-69
2022/12/19 04:06:08;;;;;;;;;;;4.60;99.90;;;;;;4994696;28;19983;-68
2022/12/19 04:08:34;;;;;;;;;;;4.50;99.90;;;;;;4995367;28;19950;-68
2022/12/19 04:11:02;;;;;;;;;;;4.60;99.90;;;;;;4994567;28;19922;-69
2022/12/19 04:13:51;;;;;;;;;;;4.70;99.90;;;;;;4990715;28;19954;-68
2022/12/19 04:16:26;;;;;;;;;;;4.60;99.90;;;;;;4987162;28;20093;-68
2022/12/19 04:18:55;;;;;;;;;;;4.60;99.90;;;;;;4993766;28;19913;-68
2022/12/19 04:21:26;;;;;;;;;;;4.60;99.90;;;;;;4996705;28;19933;-68
2022/12/19 04:23:57;;;;;;;;;;;4.60;99.90;;;;;;4991672;28;20431;-68
2022/12/19 04:26:23;;;;;;;;;;;4.60;99.90;;;;;;5002825;28;19914;-67
2022/12/19 04:28:53;;;;;;;;;;;4.50;99.90;;;;;;5016658;28;19909;-68
2022/12/19 04:31:19;;;;;;;;;;;4.60;99.90;;;;;;4993403;28;19964;-68
2022/12/19 04:33:44;;;;;;;;;;;4.60;99.90;;;;;;5008280;28;19909;-67
2022/12/19 04:36:10;;;;;;;;;;;4.60;99.90;;;;;;5009386;28;20288;-68
2022/12/19 04:38:36;;;;;;;;;;;4.60;99.90;;;;;;5006505;28;19910;-68
2022/12/19 04:41:01;;;;;;;;;;;4.60;99.90;;;;;;5004520;28;20672;-69
2022/12/19 04:43:27;;;;;;;;;;;4.60;99.90;;;;;;5007510;28;20353;-68
2022/12/19 04:45:53;;;;;;;;;;;4.60;99.90;;;;;;5004489;28;19909;-68
2022/12/19 04:48:18;;;;;;;;;;;4.70;99.90;;;;;;5004877;28;19948;-68
2022/12/19 04:50:44;;;;;;;;;;;4.70;99.90;;;;;;5010123;28;19913;-68
2022/12/19 04:53:10;;;;;;;;;;;4.70;99.90;;;;;;5012311;28;19913;-68
2022/12/19 04:55:35;;;;;;;;;;;4.70;99.90;;;;;;5013097;28;20004;-68
2022/12/19 04:58:02;;;;;;;;;;;4.70;99.90;;;;;;5011574;28;19989;-68
2022/12/19 05:00:28;;;;;;;;;;;4.80;99.90;;;;;;5012900;28;19917;-68
2022/12/19 05:02:54;;;;;;;;;;;4.80;99.90;;;;;;5009772;28;20337;-67
2022/12/19 05:05:19;;;;;;;;;;;4.90;99.90;;;;;;5023819;28;19913;-67
2022/12/19 05:07:45;;;;;;;;;;;4.80;99.90;;;;;;5012758;28;20376;-68
2022/12/19 05:10:11;;;;;;;;;;;4.80;99.90;;;;;;5012583;28;19913;-69
2022/12/19 05:12:37;;;;;;;;;;;4.70;99.90;;;;;;5007872;28;20551;-68
2022/12/19 05:15:03;;;;;;;;;;;4.70;99.90;;;;;;5003806;28;20031;-68
2022/12/19 05:17:28;;;;;;;;;;;4.70;99.90;;;;;;4996674;28;21984;-68
2022/12/19 05:19:54;;;;;;;;;;;4.70;99.90;;;;;;4997655;28;19926;-67
2022/12/19 05:22:19;;;;;;;;;;;4.80;99.90;;;;;;4996358;28;19913;-69
2022/12/19 05:24:45;;;;;;;;;;;4.80;99.90;;;;;;4999738;28;19988;-69
2022/12/19 05:27:10;;;;;;;;;;;4.80;99.90;;;;;;4997965;28;19913;-67
2022/12/19 05:29:36;;;;;;;;;;;4.90;99.90;;;;;;4996850;28;19968;-68
2022/12/19 05:32:02;;;;;;;;;;;5.00;99.90;;;;;;4996851;28;19914;-69
2022/12/19 05:34:27;;;;;;;;;;;5.00;99.90;;;;;;4996907;28;20004;-69
2022/12/19 05:36:53;;;;;;;;;;;5.00;99.90;;;;;;4998612;28;20009;-67
2022/12/19 05:39:18;;;;;;;;;;;4.90;99.90;;;;;;4997661;28;20328;-67
2022/12/19 05:41:44;;;;;;;;;;;4.90;99.90;;;;;;4999223;28;19968;-66
2022/12/19 05:44:10;;;;;;;;;;;4.90;99.90;;;;;;4996864;28;19952;-68
2022/12/19 05:46:35;;;;;;;;;;;4.80;99.90;;;;;;4997493;28;19925;-69
2022/12/19 05:49:01;;;;;;;;;;;4.90;99.90;;;;;;4997550;28;19920;-68
2022/12/19 05:51:27;;;;;;;;;;;4.80;99.90;;;;;;4997858;28;20373;-68
2022/12/19 05:53:52;;;;;;;;;;;4.70;99.90;;;;;;5011581;28;19913;-67
2022/12/19 05:56:19;;;;;;;;;;;4.70;99.90;;;;;;5009613;28;19913;-66
2022/12/19 05:58:44;;;;;;;;;;;4.70;99.90;;;;;;4981262;28;20016;-68
2022/12/19 06:01:18;;;;;;;;;;;4.80;99.90;;;;;;4996804;28;19930;-68
2022/12/19 06:03:43;;;;;;;;;;;4.70;99.90;;;;;;4997059;28;19929;-70
2022/12/19 06:06:10;;;;;;;;;;;4.80;99.90;;;;;;5001285;28;19992;-69
2022/12/19 06:08:36;;;;;;;;;;;4.70;99.90;;;;;;4997248;28;20372;-70
2022/12/19 06:11:03;;;;;;;;;;;4.70;99.90;;;;;;4996797;28;19993;-69
2022/12/19 06:13:29;;;;;;;;;;;4.80;99.90;;;;;;4996473;28;20398;-70
2022/12/19 06:15:58;;;;;;;;;;;4.80;99.90;;;;;;5005927;28;19964;-68
2022/12/19 06:18:24;;;;;;;;;;;4.80;99.90;;;;;;5015640;28;19957;-69
2022/12/19 06:20:56;;;;;;;;;;;4.80;99.90;;;;;;4990857;28;19960;-67
2022/12/19 06:23:22;;;;;;;;;;;4.80;99.90;;;;;;5010815;28;19921;-69
2022/12/19 06:25:47;;;;;;;;;;;4.80;99.90;;;;;;5008613;28;20424;-69
2022/12/19 06:28:13;;;;;;;;;;;4.80;99.90;;;;;;5005759;28;19925;-69
2022/12/19 06:30:38;;;;;;;;;;;4.80;99.90;;;;;;4996290;28;19953;-68
2022/12/19 06:33:04;;;;;;;;;;;4.90;99.90;;;;;;4995366;28;19921;-69
2022/12/19 06:35:30;;;;;;;;;;;4.90;99.90;;;;;;4997819;28;19928;-70
2022/12/19 06:37:55;;;;;;;;;;;5.00;99.90;;;;;;5001495;28;19949;-68
2022/12/19 06:43:05;;;;;;;;;;;5.00;99.90;;;;;;4999960;28;20404;-68
2022/12/19 06:45:30;;;;;;;;;;;5.00;99.90;;;;;;4994960;28;19963;-67
2022/12/19 06:47:56;;;;;;;;;;;5.00;99.90;;;;;;4997416;28;19956;-68
2022/12/19 06:50:21;;;;;;;;;;;5.00;99.90;;;;;;4994361;28;19922;-69
2022/12/19 06:52:47;;;;;;;;;;;5.00;99.90;;;;;;4995914;28;19929;-68
2022/12/19 06:55:12;;;;;;;;;;;5.00;99.90;;;;;;4994211;28;19932;-68
2022/12/19 06:57:44;;;;;;;;;;;5.00;99.90;;;;;;4995137;28;19913;-69
2022/12/19 07:00:12;;;;;;;;;;;5.00;99.90;;;;;;4992422;28;19925;-68
2022/12/19 07:02:37;;;;;;;;;;;5.00;99.90;;;;;;4993517;28;19937;-67
2022/12/19 07:05:05;;;;;;;;;;;5.00;99.90;;;;;;4995631;28;20043;-65
2022/12/19 07:07:31;;;;;;;;;;;4.90;99.90;;;;;;4998253;28;19918;-68
2022/12/19 07:09:57;;;;;;;;;;;4.90;99.90;;;;;;4997415;28;19913;-70
2022/12/19 07:12:22;;;;;;;;;;;4.90;99.90;;;;;;4997254;28;19956;-66
2022/12/19 07:14:48;;;;;;;;;;;5.00;99.90;;;;;;4993668;28;19913;-67
2022/12/19 07:17:13;;;;;;;;;;;5.00;99.90;;;;;;4997144;28;20639;-69
2022/12/19 07:19:39;;;;;;;;;;;5.10;99.90;;;;;;4994866;28;19941;-67
2022/12/19 07:22:05;;;;;;;;;;;5.10;99.90;;;;;;4996571;28;19917;-67
2022/12/19 07:24:31;;;;;;;;;;;5.10;99.90;;;;;;4997948;28;20015;-69
2022/12/19 07:26:57;;;;;;;;;;;5.10;99.90;;;;;;4997256;28;19913;-69
2022/12/19 07:29:22;;;;;;;;;;;5.10;99.90;;;;;;4996410;28;20218;-68
2022/12/19 07:31:48;;;;;;;;;;;5.20;99.90;;;;;;4996168;28;19933;-68
2022/12/19 07:34:14;;;;;;;;;;;5.30;99.90;;;;;;4995904;28;20428;-70
2022/12/19 07:36:39;;;;;;;;;;;5.20;99.90;;;;;;4994825;28;21879;-69
2022/12/19 07:39:05;;;;;;;;;;;5.20;99.90;;;;;;4991562;28;19926;-70
2022/12/19 07:41:30;;;;;;;;;;;5.30;99.90;;;;;;4987157;28;19924;-68
2022/12/19 07:43:56;;;;;;;;;;;5.30;99.90;;;;;;4994985;28;19922;-68
2022/12/19 07:46:21;;;;;;;;;;;5.30;99.90;;;;;;4998154;28;20047;-68
2022/12/19 07:48:47;;;;;;;;;;;5.30;99.90;;;;;;4996978;28;20362;-69
2022/12/19 07:51:12;;;;;;;;;;;5.40;99.90;;;;;;4997444;28;20020;-68
2022/12/19 07:53:38;;;;;;;;;;;5.40;99.90;;;;;;4997402;28;19960;-69
2022/12/19 07:56:04;;;;;;;;;;;5.40;99.90;;;;;;5010210;28;20360;-69
2022/12/19 07:58:29;;;;;;;;;;;5.50;99.90;;;;;;5009036;28;19922;-68
2022/12/19 08:00:56;;;;;;;;;;;5.60;99.90;;;;;;5002964;28;20249;-69
2022/12/19 08:03:22;;;;;;;;;;;5.60;99.90;;;;;;4997210;28;19928;-69
2022/12/19 08:05:47;;;;;;;;;;;5.60;99.90;;;;;;4994757;28;19914;-68
2022/12/19 08:08:13;;;;;;;;;;;5.70;99.90;;;;;;4997097;28;20288;-68
2022/12/19 08:10:40;;;;;;;;;;;5.70;99.90;;;;;;4994003;28;20065;-68
2022/12/19 08:13:06;;;;;;;;;;;5.80;99.90;;;;;;4992970;28;19996;-67
2022/12/19 08:15:31;;;;;;;;;;;6.00;99.90;;;;;;4994019;28;20512;-69
2022/12/19 08:17:57;;;;;;;;;;;6.00;99.90;;;;;;4995586;28;19924;-69
2022/12/19 08:20:22;;;;;;;;;;;6.00;99.90;;;;;;4998936;28;20361;-68
2022/12/19 08:22:48;;;;;;;;;;;6.00;99.90;;;;;;4976662;28;19926;-69
2022/12/19 08:25:14;;;;;;;;;;;6.10;99.90;;;;;;4991801;28;20000;-69
2022/12/19 08:27:41;;;;;;;;;;;6.20;99.90;;;;;;4997657;28;19925;-68
2022/12/19 08:30:07;;;;;;;;;;;6.20;99.90;;;;;;4997737;28;20366;-68
2022/12/19 08:32:33;;;;;;;;;;;6.30;99.90;;;;;;5003352;28;19917;-68
2022/12/19 08:34:58;;;;;;;;;;;6.30;99.90;;;;;;5002726;28;19914;-68
2022/12/19 08:37:24;;;;;;;;;;;6.30;99.90;;;;;;5004921;28;19913;-68
2022/12/19 08:39:49;;;;;;;;;;;6.40;99.90;;;;;;5011881;28;19914;-68
2022/12/19 08:42:15;;;;;;;;;;;6.40;99.90;;;;;;4987878;28;20413;-69
2022/12/19 08:44:40;;;;;;;;;;;6.50;99.90;;;;;;5019891;28;19917;-70
2022/12/19 08:47:09;;;;;;;;;;;6.60;99.90;;;;;;5012713;28;19913;-67
2022/12/19 08:49:35;;;;;;;;;;;6.60;99.90;;;;;;5008683;28;19999;-68
2022/12/19 08:52:04;;;;;;;;;;;6.60;99.90;;;;;;5015101;28;20372;-69
2022/12/19 08:54:29;;;;;;;;;;;6.70;99.90;;;;;;5015418;28;19928;-68
2022/12/19 08:56:55;;;;;;;;;;;6.70;99.90;;;;;;5012554;28;19909;-68
2022/12/19 08:59:21;;;;;;;;;;;6.80;99.90;;;;;;5012671;28;19913;-67
2022/12/19 09:01:46;;;;;;;;;;;7.00;99.90;;;;;;5008081;28;19914;-68
2022/12/19 09:04:12;;;;;;;;;;;7.00;99.90;;;;;;5019608;28;20400;-69
2022/12/19 09:06:37;;;;;;;;;;;7.10;99.90;;;;;;5016101;28;19913;-69
2022/12/19 09:09:03;;;;;;;;;;;7.00;99.90;;;;;;5016369;28;20265;-68
2022/12/19 09:11:29;;;;;;;;;;;6.90;99.90;;;;;;5014690;28;20031;-67
2022/12/19 09:13:56;;;;;;;;;;;6.90;99.90;;;;;;5010015;28;19909;-68
2022/12/19 09:16:22;;;;;;;;;;;6.90;99.90;;;;;;5014974;28;19917;-71
2022/12/19 09:18:49;;;;;;;;;;;7.00;99.90;;;;;;5006267;28;19924;-68
2022/12/19 09:21:15;;;;;;;;;;;7.10;99.90;;;;;;5007121;28;19918;-68
2022/12/19 09:23:41;;;;;;;;;;;7.10;99.90;;;;;;4994677;28;20004;-70
2022/12/19 09:26:11;;;;;;;;;;;7.20;99.90;;;;;;5010861;28;20004;-68
2022/12/19 09:28:38;;;;;;;;;;;7.10;99.90;;;;;;5020173;28;19914;-69
2022/12/19 09:31:05;;;;;;;;;;;7.10;99.90;;;;;;5010094;28;20021;-69
2022/12/19 09:33:31;;;;;;;;;;;7.20;99.90;;;;;;5007246;28;20001;-69
2022/12/19 09:35:57;;;;;;;;;;;7.30;99.90;;;;;;5009593;28;19943;-67
2022/12/19 09:38:24;;;;;;;;;;;7.30;99.90;;;;;;5019235;28;20357;-68
2022/12/19 09:41:08;;;;;;;;;;;7.40;99.90;;;;;;5025175;28;20384;-66
2022/12/19 09:43:57;;;;;;;;;;;7.50;99.90;;;;;;5013621;28;19917;-69
2022/12/19 09:46:38;;;;;;;;;;;7.60;99.90;;;;;;5027794;28;19968;-68
2022/12/19 09:49:09;;;;;;;;;;;7.60;99.90;;;;;;5014569;28;20400;-68
2022/12/19 09:51:37;;;;;;;;;;;7.70;99.90;;;;;;5023617;28;19914;-68
2022/12/19 09:54:06;;;;;;;;;;;7.80;99.90;;;;;;5018797;28;19925;-67
2022/12/19 09:56:33;;;;;;;;;;;7.70;99.90;;;;;;5027150;28;20334;-68
2022/12/19 09:59:17;;;;;;;;;;;7.80;99.90;;;;;;5011818;28;19924;-66
2022/12/19 10:02:03;;;;;;;;;;;7.80;99.90;;;;;;5014521;28;19913;-68
2022/12/19 10:04:32;;;;;;;;;;;7.90;99.90;;;;;;5012502;28;19914;-67
2022/12/19 10:06:57;;;;;;;;;;;8.00;99.90;;;;;;5015730;28;19913;-68
2022/12/19 10:09:28;;;;;;;;;;;8.10;99.90;;;;;;5013940;28;20338;-68
2022/12/19 10:11:54;;;;;;;;;;;8.10;99.90;;;;;;5010295;28;19913;-66
2022/12/19 10:14:25;;;;;;;;;;;8.10;99.90;;;;;;5013303;28;19918;-66
2022/12/19 10:16:57;;;;;;;;;;;8.20;99.90;;;;;;5017436;28;19921;-69
2022/12/19 10:19:48;;;;;;;;;;;8.10;99.90;;;;;;5012782;28;19921;-66
2022/12/19 10:22:37;;;;;;;;;;;8.20;99.90;;;;;;4986417;28;19914;-65
2022/12/19 10:25:05;;;;;;;;;;;8.30;99.90;;;;;;5009377;28;19917;-72
2022/12/19 10:27:37;;;;;;;;;;;8.40;99.90;;;;;;5014049;28;19975;-66
2022/12/19 10:30:08;;;;;;;;;;;8.40;99.90;;;;;;5015825;28;20399;-67
2022/12/19 10:32:43;;;;;;;;;;;8.40;99.90;;;;;;5012568;28;20289;-69
2022/12/19 10:35:13;;;;;;;;;;;8.50;99.90;;;;;;5017043;28;19913;-66
2022/12/19 10:37:43;;;;;;;;;;;8.60;99.90;;;;;;5011278;28;19975;-69
2022/12/19 10:40:12;;;;;;;;;;;8.60;99.90;;;;;;5004333;28;19910;-66
2022/12/19 10:42:37;;;;;;;;;;;8.80;99.90;;;;;;5003924;28;19913;-64
2022/12/19 10:45:14;;;;;;;;;;;8.90;99.90;;;;;;5010057;28;19924;-68
2022/12/19 10:47:41;;;;;;;;;;;9.10;99.90;;;;;;5031752;28;19963;-65
2022/12/19 10:50:11;;;;;;;;;;;9.20;99.90;;;;;;5019265;28;19921;-65
2022/12/19 10:52:54;;;;;;;;;;;9.20;99.90;;;;;;5007690;28;19913;-67
2022/12/19 10:55:25;;;;;;;;;;;9.20;99.90;;;;;;5003095;28;20398;-67
2022/12/19 10:57:51;;;;;;;;;;;9.30;99.90;;;;;;4992129;28;20423;-67
2022/12/19 11:00:17;;;;;;;;;;;9.50;99.90;;;;;;5010181;28;20012;-68
2022/12/19 11:02:47;;;;;;;;;;;9.70;99.90;;;;;;4994956;28;19918;-68
2022/12/19 11:05:21;;;;;;;;;;;9.80;99.90;;;;;;5010080;28;19929;-69
2022/12/19 11:08:00;;;;;;;;;;;9.80;99.90;;;;;;5010302;28;19972;-67
2022/12/19 11:10:46;;;;;;;;;;;9.70;99.90;;;;;;5012094;28;19917;-67
2022/12/19 11:13:20;;;;;;;;;;;9.60;99.90;;;;;;5010957;28;19914;-67
2022/12/19 11:15:47;;;;;;;;;;;9.70;99.90;;;;;;5010025;28;19987;-69
2022/12/19 11:18:13;;;;;;;;;;;9.80;99.90;;;;;;5008961;28;19936;-66
2022/12/19 11:20:38;;;;;;;;;;;9.60;99.90;;;;;;5010977;28;19917;-65
2022/12/19 11:23:04;;;;;;;;;;;9.60;99.90;;;;;;5006085;28;19972;-69
2022/12/19 11:25:39;;;;;;;;;;;9.60;99.90;;;;;;5010674;28;20008;-68
2022/12/19 11:28:22;;;;;;;;;;;9.60;99.90;;;;;;5010334;28;20000;-68
2022/12/19 11:30:55;;;;;;;;;;;9.60;99.90;;;;;;5012611;28;19952;-66
2022/12/19 11:33:20;;;;;;;;;;;9.70;99.90;;;;;;5011603;28;19920;-64
2022/12/19 11:35:50;;;;;;;;;;;9.70;99.90;;;;;;5009947;28;20361;-64
2022/12/19 11:38:19;;;;;;;;;;;9.60;99.90;;;;;;5009416;28;19913;-66
2022/12/19 11:40:47;;;;;;;;;;;9.60;99.90;;;;;;5013734;28;20388;-65
2022/12/19 11:43:33;;;;;;;;;;;9.60;99.90;;;;;;5011420;28;19914;-64
2022/12/19 11:46:01;;;;;;;;;;;9.60;99.90;;;;;;5009409;28;19921;-64
2022/12/19 11:48:43;;;;;;;;;;;9.60;99.90;;;;;;5011641;28;19918;-65
2022/12/19 11:51:18;;;;;;;;;;;9.80;99.90;;;;;;5007821;28;19914;-63
2022/12/19 11:53:48;;;;;;;;;;;9.90;99.90;;;;;;4994823;28;19920;-70
2022/12/19 11:56:17;;;;;;;;;;;9.80;99.90;;;;;;5015568;28;19999;-65
2022/12/19 11:58:48;;;;;;;;;;;9.80;99.90;;;;;;5013652;28;20381;-59
2022/12/19 12:01:26;;;;;;;;;;;9.90;99.90;;;;;;5014091;28;19914;-66
2022/12/19 12:04:24;;;;;;;;;;;9.90;99.90;;;;;;5009973;28;20028;-65
2022/12/19 12:06:51;;;;;;;;;;;9.90;99.90;;;;;;4966502;28;19928;-65
2022/12/19 12:09:28;;;;;;;;;;;9.80;99.90;;;;;;5013759;28;19914;-67
2022/12/19 12:12:17;;;;;;;;;;;9.80;99.90;;;;;;5010226;28;20289;-66
2022/12/19 12:14:55;;;;;;;;;;;9.70;99.90;;;;;;4995577;28;20281;-66
2022/12/19 12:17:40;;;;;;;;;;;9.80;99.90;;;;;;5006915;28;19918;-65
2022/12/19 12:20:44;;;;;;;;;;;9.80;99.90;;;;;;4972521;28;19918;-66
2022/12/19 12:23:18;;;;;;;;;;;9.80;99.90;;;;;;4940670;29;19978;-63
2022/12/19 12:25:47;;;;;;;;;;;9.90;99.90;;;;;;4928801;29;19911;-66
2022/12/19 12:28:25;;;;;;;;;;;9.90;99.90;;;;;;4968819;28;19921;-66
2022/12/19 12:30:56;;;;;;;;;;;9.90;99.90;;;;;;5009379;28;19960;-65
2022/12/19 12:33:30;;;;;;;;;;;9.80;99.90;;;;;;5012649;28;20292;-65
2022/12/19 12:36:00;;;;;;;;;;;9.70;99.90;;;;;;5005309;28;19953;-67
2022/12/19 12:38:26;;;;;;;;;;;9.70;99.90;;;;;;4997171;28;20000;-63
2022/12/19 12:41:02;;;;;;;;;;;9.70;99.90;;;;;;5015398;28;20356;-67
2022/12/19 12:43:28;;;;;;;;;;;9.70;99.90;;;;;;5014971;28;20277;-67
2022/12/19 12:45:54;;;;;;;;;;;9.70;99.90;;;;;;4993236;28;19913;-66
2022/12/19 12:48:25;;;;;;;;;;;9.60;99.90;;;;;;5006781;28;19956;-65
2022/12/19 12:50:51;;;;;;;;;;;9.70;99.90;;;;;;4987292;28;20012;-67
2022/12/19 12:53:19;;;;;;;;;;;9.80;99.90;;;;;;5006816;28;19914;-66
2022/12/19 12:55:46;;;;;;;;;;;9.70;99.90;;;;;;5010723;28;19914;-65
2022/12/19 12:58:30;;;;;;;;;;;9.60;99.90;;;;;;5008474;28;19999;-64
2022/12/19 13:01:10;;;;;;;;;;;9.50;99.90;;;;;;5005280;28;19917;-64
2022/12/19 13:03:35;;;;;;;;;;;9.50;99.90;;;;;;4999740;28;20364;-65
2022/12/19 13:06:06;;;;;;;;;;;9.50;99.90;;;;;;5012675;28;19978;-67
2022/12/19 13:08:43;;;;;;;;;;;9.50;99.90;;;;;;5018626;28;19933;-67
2022/12/19 13:14:34;;;;;;;;;;;9.50;99.90;;;;;;4979604;28;19910;-66
2022/12/19 13:17:01;;;;;;;;;;;9.50;99.90;;;;;;5007370;28;20098;-66
2022/12/19 13:19:28;;;;;;;;;;;9.60;99.90;;;;;;5007250;28;19926;-65
2022/12/19 13:22:02;;;;;;;;;;;9.60;99.90;;;;;;4994522;28;19913;-67
2022/12/19 13:24:38;;;;;;;;;;;9.50;99.90;;;;;;5011077;28;19971;-67
2022/12/19 13:27:24;;;;;;;;;;;9.40;99.90;;;;;;4996240;28;19909;-67
2022/12/19 13:29:58;;;;;;;;;;;9.40;99.90;;;;;;5008678;28;19930;-66
2022/12/19 13:32:25;;;;;;;;;;;9.30;99.90;;;;;;5014208;28;19914;-66
2022/12/19 13:34:52;;;;;;;;;;;9.30;99.90;;;;;;5010061;28;20336;-65
2022/12/19 13:37:18;;;;;;;;;;;9.30;99.90;;;;;;5020789;28;19917;-68
2022/12/19 13:39:49;;;;;;;;;;;9.30;99.90;;;;;;5017752;28;19913;-67
2022/12/19 13:45:27;;;;;;;;;;;9.30;99.90;;;;;;5012104;28;20442;-68
2022/12/19 13:47:55;;;;;;;;;;;9.30;99.90;;;;;;5011771;28;20008;-66
2022/12/19 13:50:37;;;;;;;;;;;9.20;99.90;;;;;;4992359;28;20362;-67
2022/12/19 13:53:08;;;;;;;;;;;9.30;99.90;;;;;;5003781;28;19961;-67
2022/12/19 13:55:38;;;;;;;;;;;9.30;99.90;;;;;;5008728;28;20008;-68
2022/12/19 13:58:05;;;;;;;;;;;9.20;99.90;;;;;;5006782;28;20647;-68
2022/12/19 14:00:35;;;;;;;;;;;9.20;99.90;;;;;;5011695;28;20377;-65
2022/12/19 14:03:01;;;;;;;;;;;9.20;99.90;;;;;;5004500;28;20396;-67
2022/12/19 14:05:36;;;;;;;;;;;9.10;99.90;;;;;;5011812;28;19921;-67
2022/12/19 14:08:03;;;;;;;;;;;9.00;99.90;;;;;;4989883;28;19917;-67
2022/12/19 14:10:31;;;;;;;;;;;9.00;99.90;;;;;;5010984;28;20398;-65
2022/12/19 14:15:46;;;;;;;;;;;9.00;99.90;;;;;;5012889;28;20408;-68
2022/12/19 14:18:28;;;;;;;;;;;9.00;99.90;;;;;;5014040;28;19920;-67
2022/12/19 14:21:09;;;;;;;;;;;9.20;99.90;;;;;;5013403;28;19972;-68
2022/12/19 14:23:35;;;;;;;;;;;9.20;99.90;;;;;;5010258;28;19917;-67
2022/12/19 14:26:00;;;;;;;;;;;9.00;99.90;;;;;;5012643;28;19928;-66
2022/12/19 14:28:51;;;;;;;;;;;8.90;99.90;;;;;;5018437;28;20352;-68
2022/12/19 14:31:24;;;;;;;;;;;8.90;99.90;;;;;;5010708;28;19917;-67
2022/12/19 14:33:51;;;;;;;;;;;8.90;99.90;;;;;;5008855;28;19913;-64
2022/12/19 14:36:22;;;;;;;;;;;8.90;99.90;;;;;;4988357;28;19924;-66
2022/12/19 14:38:48;;;;;;;;;;;8.90;99.90;;;;;;4988993;28;19918;-64
2022/12/19 14:44:41;;;;;;;;;;;9.00;99.90;;;;;;5004818;28;20064;-64
2022/12/19 14:47:11;;;;;;;;;;;9.00;99.90;;;;;;5011549;28;19996;-65
2022/12/19 14:49:36;;;;;;;;;;;9.00;99.90;;;;;;5010319;28;20380;-66
2022/12/19 14:52:25;;;;;;;;;;;8.90;99.90;;;;;;5014440;28;20003;-65
2022/12/19 14:55:09;;;;;;;;;;;8.90;99.90;;;;;;5006134;28;20368;-67
2022/12/19 14:57:35;;;;;;;;;;;8.90;99.90;;;;;;5005924;28;19913;-66
2022/12/19 15:00:01;;;;;;;;;;;8.80;99.90;;;;;;4993441;28;20051;-65